createdAt,value
2022-11-10T00:09:12.022Z,0.95
2022-11-10T00:19:33.924Z,1.17
2022-11-10T00:29:54.028Z,1.17
2022-11-10T00:40:14.024Z,1.25
2022-11-10T00:50:34.373Z,1.27
2022-11-10T01:01:02.231Z,1.00
2022-11-10T01:11:25.662Z,1.20
2022-11-10T01:21:45.832Z,1.10
2022-11-10T01:32:05.969Z,1.00
2022-11-10T01:42:27.929Z,0.95
2022-11-10T01:52:50.766Z,0.98
2022-11-10T02:03:19.684Z,0.93
2022-11-10T02:13:40.220Z,0.90
2022-11-10T02:24:00.346Z,0.70
2022-11-10T02:34:20.327Z,1.05
2022-11-10T02:44:40.617Z,0.70
2022-11-10T02:55:00.601Z,0.90
2022-11-10T03:05:20.620Z,0.90
2022-11-10T03:15:40.577Z,0.80
2022-11-10T03:26:04.129Z,0.88
2022-11-10T03:36:24.221Z,0.70
2022-11-10T03:46:46.851Z,0.82
2022-11-10T04:07:48.766Z,0.90
2022-11-10T04:18:31.100Z,0.80
2022-11-10T04:28:59.629Z,0.60
2022-11-10T04:39:19.754Z,0.88
2022-11-10T04:49:40.089Z,0.90
2022-11-10T05:00:00.044Z,0.60
2022-11-10T05:10:20.005Z,0.82
2022-11-10T05:20:40.228Z,0.80
2022-11-10T05:31:00.845Z,1.00
2022-11-10T05:41:21.085Z,1.35
2022-11-10T05:51:40.916Z,1.63
2022-11-10T06:02:00.803Z,1.38
2022-11-10T06:12:21.668Z,1.77
2022-11-10T06:22:41.560Z,0.90
2022-11-10T06:33:01.968Z,1.25
2022-11-10T06:43:22.253Z,1.20
2022-11-10T06:53:42.338Z,1.10
2022-11-10T07:04:21.435Z,0.90
2022-11-10T07:14:41.754Z,0.90
2022-11-10T07:25:01.832Z,1.30
2022-11-10T07:35:22.008Z,0.98
2022-11-10T07:45:42.084Z,1.08
2022-11-10T07:56:01.978Z,1.20
2022-11-10T08:06:21.951Z,1.10
2022-11-10T08:16:42.239Z,1.00
2022-11-10T08:27:02.287Z,0.93
2022-11-10T08:37:22.477Z,1.20
2022-11-10T08:47:44.703Z,0.90
2022-11-10T08:58:05.497Z,1.10
2022-11-10T09:08:26.189Z,1.15
2022-11-10T09:18:46.144Z,1.05
2022-11-10T09:29:06.194Z,1.05
2022-11-10T09:39:26.624Z,1.00
2022-11-10T09:49:51.289Z,1.20
2022-11-10T10:00:16.621Z,1.30
2022-11-10T10:10:47.002Z,1.23
2022-11-10T10:21:17.341Z,1.05
2022-11-10T10:31:50.116Z,1.20
2022-11-10T10:42:28.224Z,1.20
2022-11-10T10:53:15.314Z,0.85
2022-11-10T11:03:40.432Z,1.60
2022-11-10T11:14:26.541Z,0.85
2022-11-10T11:25:10.363Z,1.03
2022-11-10T11:35:38.904Z,0.95
2022-11-10T11:46:39.072Z,1.17
2022-11-10T11:57:40.290Z,1.05
2022-11-10T12:08:10.589Z,0.95
2022-11-10T12:18:34.309Z,0.90
2022-11-10T12:29:24.084Z,0.90
2022-11-10T12:39:56.434Z,0.80
2022-11-10T12:50:16.582Z,0.98
2022-11-10T13:00:46.136Z,0.77
2022-11-10T13:11:12.211Z,0.77
2022-11-10T13:21:50.776Z,0.82
2022-11-10T13:32:13.710Z,0.93
2022-11-10T13:42:33.630Z,0.90
2022-11-10T13:53:31.211Z,0.88
2022-11-10T14:03:54.836Z,0.63
2022-11-10T14:14:23.539Z,0.80
2022-11-10T14:25:06.869Z,0.70
2022-11-10T14:35:29.439Z,0.82
2022-11-10T14:45:53.094Z,0.70
2022-11-10T14:56:20.114Z,0.60
2022-11-10T15:06:45.799Z,0.50
2022-11-10T15:17:09.750Z,0.60
2022-11-10T15:27:31.620Z,0.47
2022-11-10T15:38:24.957Z,0.50
2022-11-10T15:48:49.778Z,0.57
2022-11-10T15:59:10.862Z,0.50
2022-11-10T16:09:31.343Z,0.60
2022-11-10T16:19:51.342Z,0.52
2022-11-10T16:30:13.409Z,0.50
2022-11-10T16:40:33.317Z,0.50
2022-11-10T16:50:55.534Z,0.50
2022-11-10T17:01:26.818Z,0.65
2022-11-10T17:11:47.100Z,0.40
2022-11-10T17:22:10.196Z,0.50
2022-11-10T17:32:57.865Z,0.68
2022-11-10T17:43:12.624Z,0.50
2022-11-10T17:53:32.444Z,0.50
2022-11-10T18:03:52.602Z,0.40
2022-11-10T18:14:12.774Z,0.40
2022-11-10T18:24:32.881Z,0.40
2022-11-10T18:34:53.108Z,0.50
2022-11-10T18:45:13.325Z,0.40
2022-11-10T18:55:33.364Z,0.45
2022-11-10T19:05:58.367Z,0.47
2022-11-10T19:16:19.125Z,0.40
2022-11-10T19:26:39.673Z,0.50
2022-11-10T19:36:59.945Z,0.45
2022-11-10T19:47:20.093Z,0.57
2022-11-10T19:57:40.139Z,0.45
2022-11-10T20:08:12.260Z,0.40
2022-11-10T20:18:34.780Z,0.50
2022-11-10T20:28:55.053Z,0.38
2022-11-10T20:39:14.961Z,0.50
2022-11-10T20:49:35.088Z,0.50
2022-11-10T20:59:55.043Z,0.50
2022-11-10T21:10:15.437Z,0.50
2022-11-10T21:20:35.312Z,0.60
2022-11-10T21:31:05.295Z,0.57
2022-11-10T21:41:25.916Z,0.45
2022-11-10T21:51:46.196Z,0.60
2022-11-10T22:02:06.476Z,0.70
2022-11-10T22:12:44.986Z,0.45
2022-11-10T22:23:05.094Z,0.35
2022-11-10T22:33:28.301Z,0.60
2022-11-10T22:44:06.472Z,0.60
2022-11-10T22:54:26.692Z,0.57
2022-11-10T23:04:46.545Z,0.60
2022-11-10T23:15:06.777Z,0.50
2022-11-10T23:25:26.685Z,0.47
2022-11-10T23:35:46.862Z,0.60
2022-11-10T23:46:08.091Z,0.50
2022-11-10T23:56:28.521Z,0.50
